createdAt,value
2018-12-10T00:01:15.008Z,6.04
2018-12-10T00:03:42.543Z,5.96
2018-12-10T00:06:10.038Z,6.02
2018-12-10T00:08:37.476Z,6.11
2018-12-10T00:11:05.025Z,6.12
2018-12-10T00:13:32.438Z,6.05
2018-12-10T00:15:59.935Z,6.05
2018-12-10T00:18:27.339Z,6.01
2018-12-10T00:20:54.754Z,5.89
2018-12-10T00:23:22.222Z,5.85
2018-12-10T00:25:49.646Z,5.86
2018-12-10T00:28:17.243Z,5.90
2018-12-10T00:30:44.658Z,5.99
2018-12-10T00:33:12.127Z,6.00
2018-12-10T00:35:39.542Z,5.99
2018-12-10T00:38:06.963Z,6.01
2018-12-10T00:40:34.404Z,6.00
2018-12-10T00:43:01.828Z,6.06
2018-12-10T00:45:29.323Z,6.08
2018-12-10T00:47:56.732Z,6.04
2018-12-10T00:50:24.154Z,6.04
2018-12-10T00:52:51.591Z,6.04
2018-12-10T00:55:19.020Z,5.99
2018-12-10T00:57:46.507Z,6.02
2018-12-10T01:00:13.923Z,5.99
2018-12-10T01:02:41.352Z,5.99
2018-12-10T01:05:08.779Z,5.98
2018-12-10T01:07:36.748Z,5.88
2018-12-10T01:10:04.181Z,5.81
2018-12-10T01:12:31.628Z,5.80
2018-12-10T01:14:59.047Z,5.78
2018-12-10T01:17:26.459Z,5.64
2018-12-10T01:19:54.571Z,5.69
2018-12-10T01:22:22.003Z,5.64
2018-12-10T01:24:49.512Z,5.67
2018-12-10T01:27:16.928Z,5.66
2018-12-10T01:29:44.360Z,5.56
2018-12-10T01:32:11.845Z,5.61
2018-12-10T01:34:39.266Z,5.57
2018-12-10T01:37:06.701Z,5.57
2018-12-10T01:39:34.120Z,5.56
2018-12-10T01:42:01.540Z,5.63
2018-12-10T01:44:28.950Z,5.58
2018-12-10T01:46:56.474Z,5.68
2018-12-10T01:49:23.934Z,5.68
2018-12-10T01:51:51.369Z,5.74
2018-12-10T01:54:19.248Z,5.72
2018-12-10T01:56:46.659Z,5.80
2018-12-10T01:59:14.075Z,5.79
2018-12-10T02:01:41.554Z,5.79
2018-12-10T02:04:08.975Z,5.82
2018-12-10T02:06:36.447Z,5.84
2018-12-10T02:09:04.145Z,5.84
2018-12-10T02:11:31.553Z,5.84
2018-12-10T02:13:58.972Z,5.79
2018-12-10T02:16:26.407Z,5.81
2018-12-10T02:18:53.820Z,5.82
2018-12-10T02:21:21.291Z,5.75
2018-12-10T02:23:48.723Z,5.75
2018-12-10T02:26:16.155Z,5.79
2018-12-10T02:29:15.351Z,5.84
2018-12-10T02:31:42.787Z,5.78
2018-12-10T02:34:10.205Z,5.82
2018-12-10T02:36:37.625Z,5.77
2018-12-10T02:39:05.251Z,5.74
2018-12-10T02:41:32.678Z,5.74
2018-12-10T02:44:00.860Z,5.77
2018-12-10T02:46:28.335Z,5.74
2018-12-10T02:48:55.798Z,5.74
2018-12-10T02:51:23.276Z,5.72
2018-12-10T02:53:50.687Z,5.63
2018-12-10T02:56:18.101Z,5.63
2018-12-10T02:58:45.513Z,5.64
2018-12-10T03:01:12.979Z,5.59
2018-12-10T03:03:40.464Z,5.54
2018-12-10T03:06:07.879Z,5.45
2018-12-10T03:08:35.311Z,5.38
2018-12-10T03:11:02.806Z,5.36
2018-12-10T03:13:30.227Z,5.36
2018-12-10T03:15:57.649Z,5.33
2018-12-10T03:18:25.069Z,5.32
2018-12-10T03:20:53.083Z,5.42
2018-12-10T03:23:20.660Z,5.32
2018-12-10T03:25:48.088Z,5.31
2018-12-10T03:28:15.516Z,5.21
2018-12-10T03:30:43.093Z,5.21
2018-12-10T03:33:10.642Z,5.14
2018-12-10T03:35:38.121Z,5.14
2018-12-10T03:38:05.561Z,5.06
2018-12-10T03:40:32.983Z,5.06
2018-12-10T03:43:00.407Z,4.93
2018-12-10T03:45:27.858Z,4.90
2018-12-10T03:47:55.352Z,4.87
2018-12-10T03:50:22.795Z,4.83
2018-12-10T03:52:50.297Z,4.85
2018-12-10T03:55:17.712Z,4.81
2018-12-10T03:57:45.144Z,4.79
2018-12-10T04:00:12.565Z,4.76
2018-12-10T04:02:40.024Z,4.74
2018-12-10T04:05:07.676Z,4.71
2018-12-10T04:07:35.255Z,4.67
2018-12-10T04:10:02.731Z,4.60
2018-12-10T04:12:30.371Z,4.70
2018-12-10T04:14:57.779Z,4.68
2018-12-10T04:17:25.293Z,4.71
2018-12-10T04:19:52.712Z,4.71
2018-12-10T04:22:20.145Z,4.68
2018-12-10T04:24:47.655Z,4.79
2018-12-10T04:27:15.066Z,4.75
2018-12-10T04:29:42.577Z,4.82
2018-12-10T04:32:09.991Z,4.82
2018-12-10T04:34:38.244Z,4.82
2018-12-10T04:37:05.671Z,4.75
2018-12-10T04:39:33.123Z,4.72
2018-12-10T04:42:00.577Z,4.71
2018-12-10T04:44:28.059Z,4.68
2018-12-10T04:46:55.484Z,4.70
2018-12-10T04:49:22.912Z,4.71
2018-12-10T04:51:50.347Z,4.73
2018-12-10T04:54:17.751Z,4.71
2018-12-10T04:56:45.167Z,4.69
2018-12-10T04:59:12.587Z,4.71
2018-12-10T05:01:40.035Z,4.73
2018-12-10T05:04:07.462Z,4.76
2018-12-10T05:06:34.873Z,4.80
2018-12-10T05:09:02.637Z,4.78
2018-12-10T05:11:30.049Z,4.77
2018-12-10T05:13:57.463Z,4.77
2018-12-10T05:16:24.898Z,4.78
2018-12-10T05:18:52.323Z,4.75
2018-12-10T05:21:19.756Z,4.70
2018-12-10T05:23:47.173Z,4.60
2018-12-10T05:26:14.592Z,4.59
2018-12-10T05:28:42.074Z,4.59
2018-12-10T05:31:09.487Z,4.56
2018-12-10T05:33:36.930Z,4.54
2018-12-10T05:36:04.343Z,4.54
2018-12-10T05:38:31.760Z,4.51
2018-12-10T05:40:59.291Z,4.49
2018-12-10T05:43:26.816Z,4.44
2018-12-10T05:45:55.586Z,4.46
2018-12-10T05:48:23.279Z,4.48
2018-12-10T05:50:50.703Z,4.47
2018-12-10T05:53:18.152Z,4.47
2018-12-10T05:55:45.569Z,4.47
2018-12-10T05:58:12.988Z,4.47
2018-12-10T06:00:40.448Z,4.53
2018-12-10T06:03:07.866Z,4.51
2018-12-10T06:05:35.297Z,4.56
2018-12-10T06:08:02.720Z,4.56
2018-12-10T06:10:30.691Z,4.60
2018-12-10T06:12:58.134Z,4.58
2018-12-10T06:15:26.053Z,4.58
2018-12-10T06:17:53.680Z,4.57
2018-12-10T06:20:21.099Z,4.47
2018-12-10T06:22:48.512Z,4.42
2018-12-10T06:25:15.955Z,4.30
2018-12-10T06:27:43.395Z,4.28
2018-12-10T06:30:10.916Z,4.26
2018-12-10T06:32:38.463Z,4.17
2018-12-10T06:35:05.889Z,4.12
2018-12-10T06:37:37.544Z,4.08
2018-12-10T06:40:02.809Z,4.07
2018-12-10T06:42:30.290Z,4.00
2018-12-10T06:44:57.793Z,4.01
2018-12-10T06:47:25.276Z,4.06
2018-12-10T06:49:52.792Z,4.00
2018-12-10T06:52:20.247Z,4.00
2018-12-10T06:54:47.691Z,3.97
2018-12-10T06:57:15.137Z,4.03
2018-12-10T06:59:42.613Z,4.07
2018-12-10T07:02:10.079Z,4.08
2018-12-10T07:04:37.800Z,4.09
2018-12-10T07:07:05.287Z,4.09
2018-12-10T07:09:32.773Z,4.31
2018-12-10T07:12:00.232Z,4.28
2018-12-10T07:14:27.672Z,4.21
2018-12-10T07:16:55.285Z,4.24
2018-12-10T07:19:22.769Z,4.27
2018-12-10T07:21:50.264Z,4.15
2018-12-10T07:24:17.803Z,4.18
2018-12-10T07:26:45.269Z,4.02
2018-12-10T07:29:12.749Z,3.89
2018-12-10T07:31:40.194Z,3.88
2018-12-10T07:34:07.630Z,3.88
2018-12-10T07:36:35.087Z,3.78
2018-12-10T07:39:02.631Z,3.75
2018-12-10T07:41:30.146Z,3.70
2018-12-10T07:43:57.547Z,3.80
2018-12-10T07:46:24.993Z,3.98
2018-12-10T07:48:52.448Z,3.92
2018-12-10T07:51:20.132Z,4.02
2018-12-10T07:53:47.557Z,4.10
2018-12-10T07:56:15.190Z,4.21
2018-12-10T07:58:42.701Z,4.29
2018-12-10T08:01:10.175Z,4.37
2018-12-10T08:03:37.615Z,4.43
2018-12-10T08:06:05.116Z,4.45
2018-12-10T08:08:32.551Z,4.43
2018-12-10T08:11:00.129Z,4.52
2018-12-10T08:13:27.625Z,4.55
2018-12-10T08:15:55.165Z,4.62
2018-12-10T08:18:22.617Z,4.62
2018-12-10T08:20:50.069Z,4.58
2018-12-10T08:23:17.555Z,4.60
2018-12-10T08:25:44.994Z,4.59
2018-12-10T08:28:12.531Z,4.63
2018-12-10T08:30:39.996Z,4.68
2018-12-10T08:33:07.520Z,4.71
2018-12-10T08:35:40.852Z,4.78
2018-12-10T08:38:04.436Z,4.74
2018-12-10T08:40:31.857Z,4.80
2018-12-10T08:42:59.360Z,4.75
2018-12-10T08:45:26.958Z,4.80
2018-12-10T08:47:54.625Z,4.81
2018-12-10T08:50:22.052Z,4.78
2018-12-10T08:52:49.514Z,4.72
2018-12-10T08:55:16.999Z,4.48
2018-12-10T08:57:44.484Z,4.41
2018-12-10T09:00:11.908Z,4.47
2018-12-10T09:02:39.375Z,4.46
2018-12-10T09:05:06.823Z,4.51
2018-12-10T09:07:34.270Z,4.44
2018-12-10T09:10:01.740Z,4.44
2018-12-10T09:12:29.249Z,4.41
2018-12-10T09:14:57.737Z,4.47
2018-12-10T09:17:25.236Z,4.39
2018-12-10T09:19:52.720Z,4.40
2018-12-10T09:22:20.220Z,4.47
2018-12-10T09:24:47.641Z,4.55
2018-12-10T09:27:15.176Z,4.59
2018-12-10T09:29:42.725Z,4.57
2018-12-10T09:32:12.383Z,4.59
2018-12-10T09:34:39.767Z,4.74
2018-12-10T09:37:07.256Z,4.80
2018-12-10T09:39:34.776Z,4.87
2018-12-10T09:42:02.333Z,4.97
2018-12-10T09:44:29.756Z,4.94
2018-12-10T09:46:59.071Z,4.92
2018-12-10T09:49:26.720Z,4.84
2018-12-10T09:51:54.206Z,4.90
2018-12-10T09:54:21.761Z,5.19
2018-12-10T09:56:49.192Z,5.31
2018-12-10T09:59:16.690Z,5.35
2018-12-10T10:01:44.147Z,5.15
2018-12-10T10:04:11.585Z,5.22
2018-12-10T10:06:39.012Z,5.12
2018-12-10T10:09:06.483Z,5.01
2018-12-10T10:11:33.953Z,5.06
2018-12-10T10:14:01.411Z,5.12
2018-12-10T10:16:28.881Z,5.07
2018-12-10T10:18:56.320Z,5.07
2018-12-10T10:21:23.796Z,5.06
2018-12-10T10:23:51.253Z,5.07
2018-12-10T10:26:18.780Z,5.13
2018-12-10T10:28:46.195Z,5.14
2018-12-10T10:31:13.715Z,5.25
2018-12-10T10:33:41.192Z,5.23
2018-12-10T10:36:08.675Z,5.41
2018-12-10T10:38:36.103Z,5.55
2018-12-10T10:41:03.566Z,5.41
2018-12-10T10:43:31.002Z,5.59
2018-12-10T10:45:58.467Z,5.56
2018-12-10T10:48:26.075Z,5.70
2018-12-10T10:50:53.515Z,5.81
2018-12-10T10:53:21.089Z,5.97
2018-12-10T10:55:48.553Z,5.87
2018-12-10T10:58:16.006Z,5.87
2018-12-10T11:00:48.964Z,5.88
2018-12-10T11:03:21.716Z,5.94
2018-12-10T11:05:49.176Z,5.94
2018-12-10T11:08:16.609Z,5.88
2018-12-10T11:10:44.077Z,6.00
2018-12-10T11:13:11.536Z,6.02
2018-12-10T11:15:39.012Z,6.24
2018-12-10T11:18:06.468Z,6.05
2018-12-10T11:20:33.903Z,6.02
2018-12-10T11:23:01.373Z,6.28
2018-12-10T11:25:28.827Z,6.38
2018-12-10T11:27:56.289Z,6.13
2018-12-10T11:30:23.759Z,6.14
2018-12-10T11:32:51.172Z,5.90
2018-12-10T11:35:18.643Z,5.58
2018-12-10T11:37:46.107Z,5.46
2018-12-10T11:40:13.566Z,5.36
2018-12-10T11:42:41.025Z,5.23
2018-12-10T11:45:08.599Z,4.82
2018-12-10T11:47:36.237Z,4.53
2018-12-10T11:50:03.684Z,4.36
2018-12-10T11:52:31.220Z,4.27
2018-12-10T11:54:58.994Z,4.36
2018-12-10T11:57:26.483Z,4.61
2018-12-10T11:59:53.959Z,4.50
2018-12-10T12:02:29.623Z,4.56
2018-12-10T12:04:50.833Z,4.80
2018-12-10T12:07:18.271Z,4.76
2018-12-10T12:09:45.757Z,4.48
2018-12-10T12:12:13.284Z,4.42
2018-12-10T12:14:40.916Z,4.28
2018-12-10T12:17:08.414Z,4.27
2018-12-10T12:19:35.833Z,4.25
2018-12-10T12:22:05.157Z,4.52
2018-12-10T12:24:32.808Z,4.92
2018-12-10T12:27:00.276Z,5.09
2018-12-10T12:29:27.733Z,5.34
2018-12-10T12:31:55.156Z,5.57
2018-12-10T12:34:22.603Z,5.71
2018-12-10T12:36:50.046Z,5.67
2018-12-10T12:39:17.518Z,5.63
2018-12-10T12:41:44.953Z,5.54
2018-12-10T12:44:12.413Z,5.51
2018-12-10T12:46:40.010Z,5.51
2018-12-10T12:49:07.455Z,5.47
2018-12-10T12:51:34.947Z,5.37
2018-12-10T12:54:02.395Z,5.18
2018-12-10T12:56:29.849Z,5.13
2018-12-10T12:58:57.332Z,5.13
2018-12-10T13:01:24.913Z,5.15
2018-12-10T13:03:52.336Z,5.23
2018-12-10T13:06:19.779Z,5.22
2018-12-10T13:08:47.276Z,5.17
2018-12-10T13:11:14.884Z,5.12
2018-12-10T13:13:42.511Z,5.02
2018-12-10T13:16:09.926Z,5.08
2018-12-10T13:18:37.351Z,5.04
2018-12-10T13:21:04.772Z,5.11
2018-12-10T13:23:32.210Z,5.01
2018-12-10T13:25:59.651Z,5.03
2018-12-10T13:28:27.076Z,5.03
2018-12-10T13:30:54.492Z,5.02
2018-12-10T13:33:21.903Z,5.15
2018-12-10T13:35:49.353Z,5.14
2018-12-10T13:38:16.776Z,5.17
2018-12-10T13:40:44.219Z,5.18
2018-12-10T13:43:12.646Z,5.17
2018-12-10T13:45:40.190Z,5.22
2018-12-10T13:48:07.603Z,5.26
2018-12-10T13:50:35.007Z,5.21
2018-12-10T13:53:02.436Z,5.18
2018-12-10T13:55:29.832Z,5.19
2018-12-10T13:57:57.243Z,5.11
2018-12-10T14:00:24.663Z,5.09
2018-12-10T14:02:52.094Z,5.12
2018-12-10T14:05:19.520Z,5.15
2018-12-10T14:07:48.152Z,5.12
2018-12-10T14:10:15.935Z,5.25
2018-12-10T14:12:43.355Z,5.29
2018-12-10T14:15:10.822Z,5.22
2018-12-10T14:17:38.258Z,5.25
2018-12-10T14:20:05.695Z,5.22
2018-12-10T14:22:33.187Z,5.26
2018-12-10T14:25:00.636Z,5.27
2018-12-10T14:27:28.047Z,5.19
2018-12-10T14:29:55.516Z,5.03
2018-12-10T14:32:22.970Z,4.80
2018-12-10T14:34:50.382Z,4.80
2018-12-10T14:37:17.810Z,4.72
2018-12-10T14:39:45.228Z,4.67
2018-12-10T14:42:12.643Z,4.65
2018-12-10T14:44:40.068Z,4.69
2018-12-10T14:47:07.498Z,4.68
2018-12-10T14:49:34.909Z,4.53
2018-12-10T14:52:02.395Z,4.36
2018-12-10T14:54:29.832Z,4.29
2018-12-10T14:56:57.708Z,4.29
2018-12-10T14:59:25.128Z,4.19
2018-12-10T15:01:52.543Z,4.25
2018-12-10T15:04:19.962Z,4.27
2018-12-10T15:06:47.371Z,4.28
2018-12-10T15:09:14.786Z,4.31
2018-12-10T15:11:42.212Z,4.47
2018-12-10T15:14:09.627Z,4.42
2018-12-10T15:16:37.040Z,4.37
2018-12-10T15:19:04.459Z,4.37
2018-12-10T15:21:31.894Z,4.33
2018-12-10T15:23:59.320Z,4.32
2018-12-10T15:26:26.735Z,4.29
2018-12-10T15:28:54.161Z,4.36
2018-12-10T15:31:21.584Z,4.29
2018-12-10T15:33:49.102Z,4.40
2018-12-10T15:36:16.601Z,4.41
2018-12-10T15:38:44.022Z,4.44
2018-12-10T15:41:11.446Z,4.42
2018-12-10T15:43:38.872Z,4.46
2018-12-10T15:46:06.283Z,4.45
2018-12-10T15:48:33.750Z,4.44
2018-12-10T15:51:01.168Z,4.42
2018-12-10T15:53:28.610Z,4.44
2018-12-10T15:55:56.052Z,4.45
2018-12-10T15:58:23.563Z,4.43
2018-12-10T16:00:51.005Z,4.38
2018-12-10T16:03:18.493Z,4.38
2018-12-10T16:05:45.931Z,4.43
2018-12-10T16:08:14.376Z,4.49
2018-12-10T16:10:41.879Z,4.58
2018-12-10T16:13:09.311Z,4.53
2018-12-10T16:15:36.798Z,4.64
2018-12-10T16:18:04.236Z,4.57
2018-12-10T16:20:31.761Z,4.61
2018-12-10T16:22:59.275Z,4.65
2018-12-10T16:25:26.701Z,4.60
2018-12-10T16:27:54.367Z,4.64
2018-12-10T16:30:22.140Z,4.60
2018-12-10T16:32:49.558Z,4.61
2018-12-10T16:35:17.041Z,4.51
2018-12-10T16:37:44.616Z,4.50
2018-12-10T16:40:12.032Z,4.55
2018-12-10T16:42:39.446Z,4.33
2018-12-10T16:45:06.886Z,4.39
2018-12-10T16:47:34.301Z,4.32
2018-12-10T16:50:01.828Z,4.33
2018-12-10T16:52:29.243Z,4.38
2018-12-10T16:54:56.671Z,4.59
2018-12-10T16:57:24.087Z,4.34
2018-12-10T16:59:51.563Z,4.26
2018-12-10T17:02:19.007Z,4.32
2018-12-10T17:04:46.430Z,4.30
2018-12-10T17:07:14.506Z,4.42
2018-12-10T17:09:42.297Z,4.35
2018-12-10T17:12:09.963Z,4.44
2018-12-10T17:14:37.414Z,4.38
2018-12-10T17:17:04.987Z,4.50
2018-12-10T17:19:32.419Z,4.48
2018-12-10T17:21:59.855Z,4.33
2018-12-10T17:24:27.375Z,4.49
2018-12-10T17:26:55.574Z,4.28
2018-12-10T17:29:23.087Z,4.25
2018-12-10T17:31:50.564Z,4.43
2018-12-10T17:34:17.992Z,4.27
2018-12-10T17:36:45.411Z,4.24
2018-12-10T17:39:12.831Z,4.30
2018-12-10T17:41:40.238Z,4.23
2018-12-10T17:44:07.662Z,4.17
2018-12-10T17:46:35.080Z,4.24
2018-12-10T17:49:02.635Z,4.18
2018-12-10T17:51:30.050Z,4.14
2018-12-10T17:53:57.734Z,4.06
2018-12-10T17:56:25.195Z,4.05
2018-12-10T17:58:52.682Z,4.09
2018-12-10T18:01:20.100Z,3.99
2018-12-10T18:03:47.523Z,4.08
2018-12-10T18:06:14.931Z,4.23
2018-12-10T18:08:42.349Z,3.99
2018-12-10T18:11:09.758Z,3.92
2018-12-10T18:13:37.181Z,3.84
2018-12-10T18:16:04.782Z,3.85
2018-12-10T18:18:32.712Z,3.85
2018-12-10T18:21:00.303Z,3.80
2018-12-10T18:23:27.731Z,3.77
2018-12-10T18:25:55.227Z,3.74
2018-12-10T18:28:22.691Z,3.64
2018-12-10T18:30:50.351Z,3.52
2018-12-10T18:33:17.846Z,3.58
2018-12-10T18:35:45.269Z,3.34
2018-12-10T18:38:12.674Z,3.31
2018-12-10T18:40:40.171Z,3.35
2018-12-10T18:43:07.580Z,3.45
2018-12-10T18:45:35.098Z,3.43
2018-12-10T18:48:02.553Z,3.43
2018-12-10T18:50:30.507Z,3.37
2018-12-10T18:52:58.124Z,3.44
2018-12-10T18:55:25.549Z,3.25
2018-12-10T18:57:53.606Z,3.20
2018-12-10T19:00:21.058Z,3.14
2018-12-10T19:02:48.483Z,3.05
2018-12-10T19:05:15.978Z,3.00
2018-12-10T19:07:44.199Z,2.96
2018-12-10T19:10:11.618Z,2.93
2018-12-10T19:12:39.284Z,3.00
2018-12-10T19:15:06.763Z,3.03
2018-12-10T19:17:34.291Z,3.13
2018-12-10T19:20:01.724Z,3.04
2018-12-10T19:22:29.255Z,3.08
2018-12-10T19:24:56.735Z,3.03
2018-12-10T19:27:24.174Z,3.10
2018-12-10T19:29:51.693Z,3.12
2018-12-10T19:32:19.143Z,3.09
2018-12-10T19:34:46.605Z,3.17
2018-12-10T19:37:14.020Z,3.13
2018-12-10T19:39:41.439Z,3.15
2018-12-10T19:42:08.864Z,3.19
2018-12-10T19:44:36.300Z,3.24
2018-12-10T19:47:04.384Z,3.23
2018-12-10T19:49:31.848Z,3.23
2018-12-10T19:51:59.432Z,3.21
2018-12-10T19:54:26.882Z,3.35
2018-12-10T19:56:54.295Z,3.35
2018-12-10T19:59:21.801Z,3.46
2018-12-10T20:01:49.287Z,3.54
2018-12-10T20:04:16.699Z,3.61
2018-12-10T20:06:49.550Z,3.55
2018-12-10T20:09:16.975Z,3.57
2018-12-10T20:11:44.403Z,3.55
2018-12-10T20:14:11.814Z,3.48
2018-12-10T20:16:39.319Z,3.45
2018-12-10T20:19:06.771Z,3.34
2018-12-10T20:21:34.207Z,3.47
2018-12-10T20:24:01.695Z,3.37
2018-12-10T20:26:29.182Z,3.33
2018-12-10T20:28:56.769Z,3.24
2018-12-10T20:31:24.276Z,3.06
2018-12-10T20:33:51.865Z,3.09
2018-12-10T20:36:19.361Z,3.03
2018-12-10T20:38:46.823Z,3.17
2018-12-10T20:41:14.246Z,3.09
2018-12-10T20:43:41.826Z,3.05
2018-12-10T20:46:09.339Z,3.09
2018-12-10T20:48:36.743Z,3.09
2018-12-10T20:51:04.169Z,3.16
2018-12-10T20:53:31.800Z,3.15
2018-12-10T20:55:59.223Z,3.19
2018-12-10T20:58:26.640Z,3.22
2018-12-10T21:00:54.096Z,3.24
2018-12-10T21:03:21.517Z,3.24
2018-12-10T21:05:54.370Z,3.23
2018-12-10T21:08:22.301Z,3.20
2018-12-10T21:10:49.736Z,3.30
2018-12-10T21:13:17.532Z,3.36
2018-12-10T21:15:44.967Z,3.37
2018-12-10T21:18:12.386Z,3.41
2018-12-10T21:20:39.798Z,3.40
2018-12-10T21:23:07.198Z,3.42
2018-12-10T21:25:34.621Z,3.37
2018-12-10T21:28:02.030Z,3.38
2018-12-10T21:30:29.461Z,3.39
2018-12-10T21:32:56.879Z,3.44
2018-12-10T21:35:24.292Z,3.47
2018-12-10T21:37:51.781Z,3.54
2018-12-10T21:40:19.190Z,3.47
2018-12-10T21:42:46.690Z,3.53
2018-12-10T21:45:14.602Z,3.43
2018-12-10T21:47:42.031Z,3.52
2018-12-10T21:50:09.461Z,3.44
2018-12-10T21:52:36.895Z,3.55
2018-12-10T21:55:04.314Z,3.47
2018-12-10T21:57:31.736Z,3.46
2018-12-10T21:59:59.196Z,3.45
2018-12-10T22:02:26.615Z,3.45
2018-12-10T22:04:54.112Z,3.49
2018-12-10T22:07:21.572Z,3.54
2018-12-10T22:09:49.024Z,3.59
2018-12-10T22:12:16.467Z,3.63
2018-12-10T22:14:43.868Z,3.71
2018-12-10T22:17:11.295Z,3.72
2018-12-10T22:19:39.585Z,3.72
2018-12-10T22:22:06.999Z,3.71
2018-12-10T22:24:34.407Z,3.73
2018-12-10T22:27:01.878Z,3.83
2018-12-10T22:29:29.297Z,3.76
2018-12-10T22:31:56.750Z,3.81
2018-12-10T22:34:25.091Z,3.80
2018-12-10T22:36:52.506Z,3.87
2018-12-10T22:39:19.937Z,3.80
2018-12-10T22:41:47.407Z,3.70
2018-12-10T22:44:14.829Z,3.58
2018-12-10T22:46:42.245Z,3.46
2018-12-10T22:49:09.655Z,3.37
2018-12-10T22:51:37.138Z,3.41
2018-12-10T22:54:04.609Z,3.38
2018-12-10T22:56:32.151Z,3.45
2018-12-10T22:58:59.554Z,3.45
2018-12-10T23:01:26.971Z,3.58
2018-12-10T23:03:54.435Z,3.61
2018-12-10T23:06:21.859Z,3.63
2018-12-10T23:08:49.285Z,3.65
2018-12-10T23:11:16.797Z,3.77
2018-12-10T23:13:44.211Z,3.78
2018-12-10T23:16:11.652Z,3.73
2018-12-10T23:18:39.067Z,3.69
2018-12-10T23:21:06.760Z,3.69
2018-12-10T23:23:34.177Z,3.67
2018-12-10T23:26:01.605Z,3.61
2018-12-10T23:28:29.099Z,3.56
2018-12-10T23:30:56.510Z,3.62
2018-12-10T23:33:23.928Z,3.54
2018-12-10T23:35:51.373Z,3.57
2018-12-10T23:38:18.835Z,3.55
2018-12-10T23:40:46.287Z,3.54
2018-12-10T23:43:19.028Z,3.53
2018-12-10T23:45:46.439Z,3.49
2018-12-10T23:48:13.874Z,3.46
2018-12-10T23:50:41.661Z,3.47
2018-12-10T23:53:09.087Z,3.46
2018-12-10T23:55:36.527Z,3.51
2018-12-10T23:58:03.944Z,3.43
